Time;durP1;ratioP1;P1;durP2;ratioP2;P2;SDS_P1;SDS_P2;PMS_P1;PMS_P2;Temp;Humidity;BMP_temperature;BMP_pressure;BME280_temperature;BME280_humidity;BME280_pressure;Samples;Min_cycle;Max_cycle;Signal;HPM_P1;HPM_P2
2021/03/16 00:01:09;;;;;;;10.60;3.33;;;6.30;82.40;;;;;;6119907;23;20170;-88
2021/03/16 00:03:35;;;;;;;8.77;3.03;;;6.10;82.80;;;;;;6140324;23;20378;-88
2021/03/16 00:06:04;;;;;;;8.77;3.33;;;6.10;79.90;;;;;;6188516;23;21082;-86
2021/03/16 00:08:30;;;;;;;9.93;5.07;;;7.30;79.40;;;;;;6101527;23;20198;-88
2021/03/16 00:11:07;;;;;;;17.47;5.53;;;5.90;78.50;;;;;;6089133;23;20188;-87
2021/03/16 00:13:35;;;;;;;14.95;3.58;;;8.50;80.70;;;;;;6088422;23;20374;-88
2021/03/16 00:16:03;;;;;;;5.95;3.33;;;7.30;76.60;;;;;;6116366;23;20158;-87
2021/03/16 00:18:31;;;;;;;15.88;3.58;;;8.60;78.70;;;;;;6091349;23;20185;-87
2021/03/16 00:21:45;;;;;;;10.95;3.53;;;6.00;74.30;;;;;;6092196;23;20165;-88
2021/03/16 00:24:12;;;;;;;15.90;4.20;;;8.50;78.70;;;;;;6115696;23;20154;-88
2021/03/16 00:27:09;;;;;;;11.85;3.40;;;6.00;77.40;;;;;;6117128;23;20143;-88
2021/03/16 00:32:17;;;;;;;17.05;2.80;;;5.90;75.80;;;;;;6116683;22;20245;-87
2021/03/16 00:35:13;;;;;;;8.25;2.65;;;5.80;73.60;;;;;;6118003;23;20154;-87
2021/03/16 00:37:43;;;;;;;9.52;3.00;;;8.50;77.60;;;;;;6116994;23;20146;-88
2021/03/16 00:40:23;;;;;;;10.57;2.75;;;5.90;76.30;;;;;;6186181;23;20194;-88
2021/03/16 00:43:29;;;;;;;14.45;2.55;;;7.90;76.90;;;;;;6114826;22;20158;-87
2021/03/16 00:49:18;;;;;;;13.18;3.20;;;6.00;76.60;;;;;;6119605;22;20146;-87
2021/03/16 00:54:25;;;;;;;6.20;3.50;;;5.90;76.10;;;;;;6110350;22;20191;-88
2021/03/16 00:57:01;;;;;;;10.95;3.13;;;4.20;76.00;;;;;;6148379;23;20199;-87
2021/03/16 00:59:50;;;;;;;14.18;4.50;;;8.30;78.50;;;;;;6076027;23;20205;-88
2021/03/16 01:02:55;;;;;;;17.80;3.70;;;5.70;77.60;;;;;;6122364;23;20134;-87
2021/03/16 01:08:48;;;;;;;10.80;2.75;;;5.80;77.60;;;;;;6147168;23;20155;-88
2021/03/16 01:11:15;;;;;;;13.50;3.15;;;8.40;77.80;;;;;;6152812;23;20141;-88
2021/03/16 01:13:47;;;;;;;19.05;4.43;;;5.90;77.00;;;;;;6123881;22;20187;-87
2021/03/16 01:19:59;;;;;;;7.00;2.80;;;6.40;73.00;;;;;;6126849;23;20242;-88
2021/03/16 01:25:46;;;;;;;10.07;2.30;;;8.50;75.70;;;;;;6148169;23;20244;-87
2021/03/16 01:28:42;;;;;;;11.30;2.78;;;7.00;74.10;;;;;;6122532;23;20150;-87
2021/03/16 01:31:42;;;;;;;7.80;2.88;;;8.30;77.40;;;;;;6153146;23;20155;-87
2021/03/16 01:34:31;;;;;;;13.13;2.22;;;6.90;76.30;;;;;;6122260;23;20157;-87
2021/03/16 01:37:50;;;;;;;8.15;2.65;;;8.50;74.50;;;;;;6148835;23;20145;-88
2021/03/16 01:41:06;;;;;;;6.63;2.65;;;6.90;71.70;;;;;;6148331;23;20170;-88
2021/03/16 01:44:02;;;;;;;9.10;3.58;;;6.80;70.10;;;;;;6146530;23;20197;-87
2021/03/16 01:47:11;;;;;;;8.75;2.58;;;8.10;73.70;;;;;;6142078;22;20146;-88
2021/03/16 01:53:50;;;;;;;9.60;2.25;;;8.20;73.20;;;;;;6148899;23;20168;-88
2021/03/16 01:57:32;;;;;;;9.52;2.40;;;7.50;72.80;;;;;;6147343;23;20188;-88
2021/03/16 02:00:47;;;;;;;10.68;2.40;;;5.50;70.80;;;;;;6104152;23;20193;-87
2021/03/16 02:04:09;;;;;;;9.38;1.90;;;5.90;72.30;;;;;;6218186;23;20159;-86
2021/03/16 02:07:19;;;;;;;7.25;2.03;;;7.90;76.10;;;;;;6243244;23;20219;-87
2021/03/16 02:11:12;;;;;;;5.20;2.17;;;8.00;74.70;;;;;;6226194;23;20159;-87
2021/03/16 02:17:55;;;;;;;6.70;2.10;;;8.00;68.10;;;;;;6243323;23;20142;-86
2021/03/16 02:25:05;;;;;;;10.80;3.47;;;7.90;66.40;;;;;;6153773;23;20156;-88
2021/03/16 02:28:23;;;;;;;9.73;2.30;;;5.50;66.70;;;;;;6128592;23;20222;-88
2021/03/16 02:31:01;;;;;;;11.45;3.55;;;7.70;67.30;;;;;;6153318;23;20145;-87
2021/03/16 02:34:04;;;;;;;8.30;3.40;;;5.40;67.00;;;;;;6092956;23;20182;-88
2021/03/16 02:36:55;;;;;;;14.75;3.15;;;6.10;64.30;;;;;;6089988;23;20147;-87
2021/03/16 02:39:39;;;;;;;7.45;2.67;;;6.90;65.40;;;;;;6119879;23;20196;-88
2021/03/16 02:42:41;;;;;;;8.60;2.15;;;8.10;67.90;;;;;;6129422;23;20153;-88
2021/03/16 02:45:46;;;;;;;6.07;2.80;;;5.60;68.30;;;;;;6124793;23;20153;-88
2021/03/16 02:48:54;;;;;;;8.20;2.83;;;5.60;70.90;;;;;;6058594;23;20139;-87
2021/03/16 02:51:46;;;;;;;6.80;2.50;;;8.00;69.80;;;;;;6036894;23;20136;-87
2021/03/16 02:55:25;;;;;;;11.13;3.05;;;6.70;69.80;;;;;;6041277;23;20170;-87
2021/03/16 02:58:24;;;;;;;9.13;3.42;;;8.50;71.00;;;;;;6036679;23;20167;-87
2021/03/16 03:01:39;;;;;;;9.15;2.85;;;7.60;72.70;;;;;;6037741;23;20167;-87
2021/03/16 03:06:56;;;;;;;8.43;3.35;;;5.70;72.70;;;;;;6110469;23;20205;-86
2021/03/16 03:12:35;;;;;;;12.77;3.17;;;8.20;77.10;;;;;;6116041;22;20225;-87
2021/03/16 03:15:10;;;;;;;5.30;2.40;;;7.00;78.50;;;;;;6120163;23;20158;-86
2021/03/16 03:35:47;;;;;;;9.15;2.40;;;;;;;;;;6096256;22;20193;-88
2021/03/16 03:38:14;;;;;;;10.27;2.25;;;5.80;77.70;;;;;;6097694;23;20154;-87
2021/03/16 03:54:17;;;;;;;5.30;1.80;;;5.90;72.30;;;;;;6116842;22;20226;-86
2021/03/16 03:57:04;;;;;;;;;;;;;;;;;;;;;
2021/03/16 03:59:30;;;;;;;7.30;2.30;;;5.80;74.80;;;;;;6119676;23;20182;-87
2021/03/16 04:02:00;;;;;;;9.45;1.95;;;5.60;74.90;;;;;;6119780;23;20170;-86
2021/03/16 04:04:36;;;;;;;5.25;1.98;;;5.70;72.30;;;;;;6095638;23;20137;-88
2021/03/16 04:07:05;;;;;;;10.18;2.40;;;8.40;74.30;;;;;;6118750;23;20138;-87
2021/03/16 04:09:33;;;;;;;8.13;2.13;;;5.90;73.70;;;;;;6094980;23;20157;-87
2021/03/16 04:12:01;;;;;;;2.70;1.67;;;5.80;71.90;;;;;;6095131;23;20153;-88
2021/03/16 04:14:30;;;;;;;5.63;1.95;;;6.00;67.70;;;;;;6119201;23;20168;-87
2021/03/16 04:17:03;;;;;;;5.35;1.85;;;8.30;72.30;;;;;;6092657;23;20173;-86
2021/03/16 04:19:29;;;;;;;8.05;2.38;;;5.90;70.50;;;;;;6119751;23;20194;-88
2021/03/16 04:22:04;;;;;;;7.30;1.93;;;5.80;71.20;;;;;;6111104;23;20206;-88
2021/03/16 04:24:30;;;;;;;3.70;1.65;;;5.70;72.40;;;;;;6217041;23;20188;-87
2021/03/16 04:26:56;;;;;;;4.60;2.08;;;5.80;72.80;;;;;;6116822;23;20214;-85
2021/03/16 04:29:49;;;;;;;7.67;1.87;;;5.80;71.20;;;;;;6116766;23;20206;-86
2021/03/16 04:35:33;;;;;;;7.62;2.22;;;6.40;71.50;;;;;;5966788;22;4683729;-90
2021/03/16 04:38:01;;;;;;;5.87;2.03;;;3.70;70.20;;;;;;6147933;23;20161;-88
2021/03/16 04:40:27;;;;;;;9.27;2.13;;;5.80;71.80;;;;;;6123081;22;20190;-87
2021/03/16 04:42:52;;;;;;;3.17;2.70;;;5.70;71.80;;;;;;6123169;22;20222;-86
2021/03/16 04:45:48;;;;;;;4.57;2.43;;;5.70;72.10;;;;;;6124160;22;20138;-87
2021/03/16 04:48:30;;;;;;;8.20;2.50;;;5.70;69.80;;;;;;6122647;22;20156;-87
2021/03/16 04:53:51;;;;;;;5.90;2.70;;;5.90;71.70;;;;;;6125201;23;20264;-87
2021/03/16 04:56:23;;;;;;;8.43;3.33;;;7.00;75.50;;;;;;6094878;23;20138;-87
2021/03/16 05:01:25;;;;;;;9.55;1.98;;;5.80;72.30;;;;;;6116728;22;20220;-87
2021/03/16 05:03:53;;;;;;;20.27;4.32;;;5.80;74.10;;;;;;6094379;23;20170;-87
2021/03/16 05:06:30;;;;;;;7.40;3.00;;;5.90;73.20;;;;;;6095991;23;20201;-86
2021/03/16 05:08:59;;;;;;;10.07;2.47;;;8.40;75.20;;;;;;6118556;23;20156;-86
2021/03/16 05:11:31;;;;;;;8.73;2.70;;;5.90;70.10;;;;;;6093991;23;20162;-86
2021/03/16 05:13:57;;;;;;;14.70;2.45;;;;;;;;;;6095021;23;20209;-89
2021/03/16 05:16:31;;;;;;;9.98;3.10;;;4.50;71.60;;;;;;6196155;23;20166;-86
2021/03/16 05:18:57;;;;;;;8.48;3.00;;;5.80;73.00;;;;;;6118822;23;20146;-88
2021/03/16 05:21:31;;;;;;;7.17;2.50;;;5.90;73.40;;;;;;6094474;23;20158;-87
2021/03/16 05:24:22;;;;;;;7.63;2.60;;;5.80;73.30;;;;;;6118508;23;20454;-86
2021/03/16 05:27:25;;;;;;;7.53;3.00;;;8.00;72.50;;;;;;6191236;23;20201;-87
2021/03/16 05:29:59;;;;;;;11.73;3.65;;;5.90;73.70;;;;;;6157261;22;20183;-86
2021/03/16 05:37:41;;;;;;;11.38;4.93;;;5.90;72.70;;;;;;6078899;23;20197;-88
2021/03/16 05:40:07;;;;;;;19.83;4.95;;;5.90;75.80;;;;;;6094428;23;20189;-85
2021/03/16 05:42:36;;;;;;;8.35;3.85;;;6.60;76.30;;;;;;6094813;23;20166;-88
2021/03/16 05:45:15;;;;;;;11.02;3.60;;;6.10;76.00;;;;;;6090006;23;20233;-88
2021/03/16 05:47:50;;;;;;;12.98;3.95;;;5.90;75.80;;;;;;6134177;22;20211;-86
2021/03/16 05:50:16;;;;;;;6.88;3.10;;;8.40;75.90;;;;;;6210880;23;20132;-87
2021/03/16 05:52:48;;;;;;;9.02;2.85;;;5.90;76.00;;;;;;6211926;23;20171;-87
2021/03/16 05:58:39;;;;;;;12.98;2.90;;;8.30;76.60;;;;;;6115220;23;20209;-88
2021/03/16 06:01:05;;;;;;;12.80;4.57;;;6.00;76.30;;;;;;6116300;23;20169;-86
2021/03/16 06:06:38;;;;;;;11.65;3.22;;;6.10;75.10;;;;;;6087491;23;20190;-86
2021/03/16 06:09:39;;;;;;;8.73;3.65;;;6.10;76.70;;;;;;6085741;23;20149;-87
2021/03/16 06:12:38;;;;;;;11.90;4.35;;;9.00;78.00;;;;;;6085973;23;20146;-87
2021/03/16 06:15:34;;;;;;;9.52;3.95;;;6.80;73.90;;;;;;6087921;23;20161;-86
2021/03/16 06:21:08;;;;;;;12.45;2.88;;;6.30;75.20;;;;;;6113862;22;20782;-88
2021/03/16 06:23:40;;;;;;;10.52;3.65;;;6.10;75.40;;;;;;6093981;23;20162;-87
2021/03/16 06:26:17;;;;;;;8.02;3.80;;;6.00;75.90;;;;;;6091971;23;20162;-86
2021/03/16 06:28:47;;;;;;;8.40;3.78;;;6.00;75.40;;;;;;6151709;23;20262;-88
2021/03/16 06:31:36;;;;;;;9.68;5.13;;;6.00;77.20;;;;;;6239458;22;20136;-87
2021/03/16 06:34:03;;;;;;;12.60;3.70;;;7.40;73.50;;;;;;6239980;22;20175;-87
2021/03/16 06:36:32;;;;;;;12.75;3.17;;;6.20;73.30;;;;;;6237098;22;20147;-87
2021/03/16 06:39:37;;;;;;;16.70;4.97;;;6.10;76.70;;;;;;6238087;22;20167;-87
2021/03/16 06:42:31;;;;;;;10.30;3.10;;;5.70;74.20;;;;;;6237425;23;20171;-87
2021/03/16 06:45:35;;;;;;;8.45;2.55;;;8.60;76.70;;;;;;6234532;23;20153;-87
2021/03/16 06:48:37;;;;;;;6.20;3.50;;;7.50;74.70;;;;;;6260323;22;20506;-88
2021/03/16 06:51:32;;;;;;;6.35;3.05;;;4.60;68.20;;;;;;6261756;23;20226;-88
2021/03/16 06:54:22;;;;;;;7.32;2.63;;;6.30;72.30;;;;;;6235928;23;20148;-88
2021/03/16 06:57:31;;;;;;;7.00;2.35;;;6.30;70.60;;;;;;6260101;23;20147;-89
2021/03/16 07:00:32;;;;;;;5.32;2.63;;;8.40;71.20;;;;;;6236944;22;20183;-87
2021/03/16 07:03:20;;;;;;;4.13;2.30;;;8.90;69.40;;;;;;6238942;23;20211;-87
2021/03/16 07:05:49;;;;;;;5.22;1.58;;;7.00;68.80;;;;;;6262119;22;20242;-88
2021/03/16 07:08:18;;;;;;;6.38;2.13;;;7.00;67.50;;;;;;6237080;23;20131;-88
2021/03/16 07:10:58;;;;;;;6.28;2.70;;;3.90;61.60;;;;;;6235232;23;20198;-86
2021/03/16 07:13:40;;;;;;;13.10;3.10;;;8.50;64.80;;;;;;6211417;23;20238;-87
2021/03/16 07:16:10;;;;;;;6.13;3.25;;;8.60;65.20;;;;;;6236888;23;20249;-88
2021/03/16 07:18:51;;;;;;;8.02;3.97;;;7.70;65.00;;;;;;6236093;22;20150;-87
2021/03/16 07:21:38;;;;;;;8.45;3.65;;;10.10;65.30;;;;;;6227392;23;20202;-88
2021/03/16 07:24:12;;;;;;;5.50;3.60;;;7.40;67.80;;;;;;6232141;23;20124;-87
2021/03/16 07:26:44;;;;;;;6.18;3.22;;;5.90;66.90;;;;;;6235620;22;20202;-85
2021/03/16 07:29:13;;;;;;;15.13;3.92;;;7.20;69.20;;;;;;6238469;22;20183;-86
2021/03/16 07:31:43;;;;;;;10.30;5.60;;;7.10;73.20;;;;;;6232101;22;20156;-88
2021/03/16 07:34:26;;;;;;;3.67;3.35;;;6.90;71.00;;;;;;6208431;23;20211;-85
2021/03/16 07:36:54;;;;;;;7.93;4.30;;;6.90;75.00;;;;;;6237201;22;20166;-85
2021/03/16 07:39:26;;;;;;;6.82;4.78;;;6.90;70.50;;;;;;6238137;22;20198;-87
2021/03/16 07:42:12;;;;;;;11.07;4.35;;;9.40;75.10;;;;;;6259469;23;20165;-87
2021/03/16 07:44:45;;;;;;;8.75;5.50;;;7.30;72.40;;;;;;6237855;23;20154;-87
2021/03/16 07:47:12;;;;;;;9.05;6.15;;;6.50;74.20;;;;;;6234920;23;20193;-86
2021/03/16 07:49:45;;;;;;;8.93;5.80;;;7.00;71.60;;;;;;6236057;23;20143;-87
2021/03/16 07:55:06;;;;;;;14.63;7.00;;;7.50;71.40;;;;;;6113515;22;20657;-85
2021/03/16 08:00:34;;;;;;;18.80;12.02;;;7.80;66.50;;;;;;6117970;22;20324;-87
2021/03/16 08:03:02;;;;;;;10.80;5.15;;;7.90;69.20;;;;;;6086341;23;20162;-88
2021/03/16 08:05:38;;;;;;;8.32;3.95;;;7.90;66.20;;;;;;6097834;23;20153;-86
2021/03/16 08:09:00;;;;;;;9.80;4.28;;;6.80;64.20;;;;;;6099781;23;20145;-88
2021/03/16 08:11:45;;;;;;;7.32;2.85;;;8.60;63.30;;;;;;6113057;23;20154;-90
2021/03/16 08:14:28;;;;;;;11.45;4.35;;;8.60;63.40;;;;;;6115619;23;20146;-88
2021/03/16 08:16:54;;;;;;;7.90;4.03;;;10.80;68.00;;;;;;6184160;23;20214;-88
2021/03/16 08:19:34;;;;;;;5.28;3.05;;;8.00;63.80;;;;;;6211446;23;20181;-89
2021/03/16 08:22:13;;;;;;;5.47;2.30;;;8.00;63.20;;;;;;6092604;23;20180;-89
2021/03/16 08:24:51;;;;;;;6.15;2.58;;;7.80;59.80;;;;;;6086403;23;20149;-86
2021/03/16 08:30:41;;;;;;;4.70;2.30;;;10.50;63.00;;;;;;6117904;23;20187;-86
2021/03/16 08:33:09;;;;;;;5.95;3.40;;;8.10;63.20;;;;;;6108934;23;20205;-86
2021/03/16 08:35:49;;;;;;;5.40;2.30;;;8.10;62.80;;;;;;6088652;23;20161;-87
2021/03/16 08:41:11;;;;;;;11.20;4.10;;;9.30;59.30;;;;;;6123507;22;20212;-89
2021/03/16 08:43:47;;;;;;;3.38;2.08;;;9.50;61.80;;;;;;6112961;23;20373;-89
2021/03/16 08:46:14;;;;;;;5.75;2.00;;;9.90;59.30;;;;;;6197941;23;20180;-86
2021/03/16 08:48:42;;;;;;;2.88;2.25;;;9.60;59.40;;;;;;6097144;23;20152;-88
2021/03/16 08:51:08;;;;;;;4.43;1.85;;;11.40;58.90;;;;;;6069780;23;20483;-87
2021/03/16 08:53:33;;;;;;;3.40;2.00;;;9.70;59.70;;;;;;6068198;23;20178;-88
2021/03/16 08:55:59;;;;;;;3.50;1.67;;;9.00;59.60;;;;;;6067193;23;20147;-88
2021/03/16 08:58:26;;;;;;;2.13;1.40;;;9.30;58.80;;;;;;6065674;23;20158;-88
2021/03/16 09:00:53;;;;;;;3.30;1.45;;;10.20;58.20;;;;;;6095833;23;20382;-89
2021/03/16 09:03:55;;;;;;;2.50;1.40;;;10.70;56.70;;;;;;6090757;23;20161;-88
2021/03/16 09:06:34;;;;;;;5.95;1.90;;;9.60;56.20;;;;;;6108604;23;20185;-89
2021/03/16 09:09:07;;;;;;;3.88;1.80;;;9.40;58.10;;;;;;6116742;23;20146;-88
2021/03/16 09:11:37;;;;;;;9.18;2.75;;;9.40;58.10;;;;;;6081648;23;20154;-88
2021/03/16 09:14:37;;;;;;;;;;;;;;;;;;;;;
2021/03/16 09:19:52;;;;;;;3.63;2.45;;;9.80;57.00;;;;;;6111659;22;21201;-89
2021/03/16 09:22:56;;;;;;;;;;;;;;;;;;;;;
2021/03/16 09:28:03;;;;;;;7.47;3.40;;;10.30;55.50;;;;;;6118792;23;20464;-86
2021/03/16 09:30:35;;;;;;;6.23;2.47;;;10.80;56.70;;;;;;6117947;23;20138;-85
2021/03/16 09:33:23;;;;;;;5.20;2.47;;;11.60;53.70;;;;;;6216149;23;20366;-87
2021/03/16 09:36:16;;;;;;;4.57;3.50;;;14.30;52.00;;;;;;6112237;23;20425;-87
2021/03/16 09:42:19;;;;;;;6.47;2.83;;;9.40;50.40;;;;;;6120783;23;20397;-88
2021/03/16 09:45:15;;;;;;;5.30;3.43;;;10.70;53.50;;;;;;6118570;23;20153;-87
2021/03/16 09:47:41;;;;;;;5.03;2.60;;;12.70;54.50;;;;;;6215985;23;20394;-88
2021/03/16 09:50:19;;;;;;;5.27;2.70;;;10.00;54.00;;;;;;6084309;23;20378;-89
2021/03/16 09:52:56;;;;;;;6.25;2.33;;;10.00;54.70;;;;;;6089924;23;20389;-89
2021/03/16 09:55:26;;;;;;;5.88;4.35;;;10.80;53.00;;;;;;6089588;23;20150;-86
2021/03/16 09:57:55;;;;;;;4.47;3.78;;;9.10;57.40;;;;;;6109614;23;20162;-89
2021/03/16 10:03:10;;;;;;;8.02;2.90;;;8.30;59.80;;;;;;6085839;23;20290;-87
2021/03/16 10:05:37;;;;;;;4.38;2.95;;;8.00;66.00;;;;;;6083505;23;20150;-86
2021/03/16 10:08:08;;;;;;;4.15;3.03;;;7.70;69.60;;;;;;6085850;23;20157;-86
2021/03/16 10:10:43;;;;;;;3.00;2.65;;;7.60;67.50;;;;;;6081476;23;20159;-89
2021/03/16 10:13:10;;;;;;;6.10;3.08;;;7.50;72.80;;;;;;6087542;23;20147;-87
2021/03/16 10:15:45;;;;;;;3.35;2.10;;;7.60;75.30;;;;;;6092372;23;20204;-86
2021/03/16 10:18:22;;;;;;;4.23;2.60;;;6.40;69.20;;;;;;6082589;23;20147;-87
2021/03/16 10:20:51;;;;;;;3.80;2.10;;;10.50;68.70;;;;;;6134810;23;20410;-87
2021/03/16 10:23:35;;;;;;;4.43;2.00;;;10.00;66.10;;;;;;6087462;23;20173;-89
2021/03/16 10:26:08;;;;;;;2.37;2.00;;;12.40;57.20;;;;;;6079216;23;20445;-86
2021/03/16 10:28:46;;;;;;;3.13;1.50;;;11.80;57.40;;;;;;6083177;23;20406;-89
2021/03/16 10:31:23;;;;;;;4.30;2.43;;;12.00;52.70;;;;;;6085902;23;20747;-88
2021/03/16 10:33:53;;;;;;;2.93;1.83;;;14.90;52.40;;;;;;6075144;23;20355;-88
2021/03/16 10:36:22;;;;;;;10.40;2.70;;;13.80;51.00;;;;;;6073233;23;20680;-89
2021/03/16 10:38:52;;;;;;;5.87;2.80;;;14.20;49.50;;;;;;6073003;23;20427;-89
2021/03/16 10:41:19;;;;;;;2.40;2.20;;;13.20;48.50;;;;;;6073110;23;20514;-87
2021/03/16 10:43:46;;;;;;;5.57;2.37;;;13.30;49.20;;;;;;6095610;23;20750;-90
2021/03/16 10:46:12;;;;;;;3.40;3.13;;;12.30;49.60;;;;;;6073391;23;20379;-85
2021/03/16 10:48:38;;;;;;;11.20;3.87;;;12.80;52.70;;;;;;6074251;23;20380;-87
2021/03/16 10:51:04;;;;;;;3.23;3.03;;;12.60;55.40;;;;;;6072213;23;20374;-90
2021/03/16 10:53:30;;;;;;;4.03;3.10;;;10.60;54.50;;;;;;6078640;23;20226;-89
2021/03/16 10:56:00;;;;;;;3.95;2.95;;;12.50;57.00;;;;;;6076829;23;20163;-88
2021/03/16 10:58:26;;;;;;;6.72;3.63;;;9.70;60.90;;;;;;6074334;23;20159;-86
2021/03/16 11:00:53;;;;;;;8.43;3.37;;;12.30;63.00;;;;;;6075576;23;20166;-88
2021/03/16 11:03:30;;;;;;;7.35;4.75;;;10.50;55.20;;;;;;6097359;23;20147;-89
2021/03/16 11:06:03;;;;;;;5.05;2.90;;;9.90;56.90;;;;;;6106469;23;20142;-88
2021/03/16 11:09:16;;;;;;;6.57;3.40;;;9.30;56.10;;;;;;6085591;23;20213;-91
2021/03/16 11:11:45;;;;;;;5.82;3.17;;;10.80;55.80;;;;;;6086872;23;20131;-89
2021/03/16 11:14:14;;;;;;;5.80;3.38;;;10.40;55.60;;;;;;6109265;23;20166;-88
2021/03/16 11:16:42;;;;;;;4.43;4.05;;;11.00;58.40;;;;;;6101856;23;20177;-88
2021/03/16 11:19:08;;;;;;;3.88;3.55;;;11.40;60.90;;;;;;6079539;23;20210;-88
2021/03/16 11:21:38;;;;;;;2.90;2.70;;;12.00;64.80;;;;;;6101492;23;20154;-87
2021/03/16 11:24:04;;;;;;;2.50;2.10;;;9.90;57.10;;;;;;6104839;23;20227;-87
2021/03/16 11:26:30;;;;;;;2.53;1.90;;;10.40;58.30;;;;;;6079667;23;20181;-86
2021/03/16 11:28:58;;;;;;;2.07;1.80;;;9.00;58.20;;;;;;6079195;23;20163;-87
2021/03/16 11:31:25;;;;;;;4.35;1.80;;;11.90;59.30;;;;;;6098180;23;20387;-87
2021/03/16 11:33:51;;;;;;;2.23;1.83;;;10.30;57.40;;;;;;6075064;23;20157;-86
2021/03/16 11:36:16;;;;;;;4.87;2.30;;;12.30;56.90;;;;;;6070883;23;20569;-86
2021/03/16 11:38:42;;;;;;;5.03;3.27;;;12.30;59.10;;;;;;6093893;23;20190;-87
2021/03/16 11:41:10;;;;;;;8.93;3.60;;;9.30;53.70;;;;;;6072137;23;20197;-84
2021/03/16 11:43:36;;;;;;;4.07;2.85;;;11.70;56.50;;;;;;6072997;23;20159;-88
2021/03/16 11:46:05;;;;;;;4.18;2.90;;;9.80;54.10;;;;;;6076207;23;20157;-88
2021/03/16 11:48:31;;;;;;;2.83;2.63;;;10.00;55.30;;;;;;6077962;23;20210;-86
2021/03/16 11:51:00;;;;;;;4.45;3.40;;;11.10;58.00;;;;;;6081720;23;20155;-87
2021/03/16 11:53:29;;;;;;;3.15;2.67;;;9.50;59.40;;;;;;6080817;23;20208;-87
2021/03/16 11:55:59;;;;;;;4.00;3.70;;;13.80;60.80;;;;;;6083056;23;20139;-87
2021/03/16 11:58:26;;;;;;;6.18;2.55;;;9.00;54.10;;;;;;6104153;23;20178;-87
2021/03/16 12:00:52;;;;;;;7.40;2.83;;;10.10;55.60;;;;;;6074841;23;20155;-85
2021/03/16 12:03:19;;;;;;;3.80;2.10;;;10.90;52.10;;;;;;6069658;23;20387;-87
2021/03/16 12:05:46;;;;;;;6.17;3.63;;;12.00;53.30;;;;;;6078293;23;20595;-87
2021/03/16 12:08:13;;;;;;;5.00;3.23;;;15.20;54.00;;;;;;6077152;23;20390;-88
2021/03/16 12:10:39;;;;;;;6.53;2.60;;;13.40;51.30;;;;;;6071897;23;20391;-88
2021/03/16 12:13:07;;;;;;;2.10;1.80;;;15.20;49.10;;;;;;6104912;23;20390;-87
2021/03/16 12:15:33;;;;;;;3.20;1.77;;;14.10;48.60;;;;;;6081953;23;20395;-87
2021/03/16 12:17:58;;;;;;;1.67;1.57;;;14.20;47.90;;;;;;6075916;23;20413;-88
2021/03/16 12:20:27;;;;;;;2.13;1.30;;;16.00;47.20;;;;;;6080965;23;20265;-88
2021/03/16 12:22:56;;;;;;;3.27;2.30;;;16.20;46.00;;;;;;6079908;23;20166;-86
2021/03/16 12:25:22;;;;;;;4.80;2.80;;;11.80;44.50;;;;;;6082364;23;20445;-89
2021/03/16 12:27:50;;;;;;;2.43;1.27;;;13.80;45.60;;;;;;6079851;23;20438;-85
2021/03/16 12:30:17;;;;;;;2.50;2.30;;;12.60;42.70;;;;;;6082368;23;20426;-88
2021/03/16 12:35:22;;;;;;;2.40;2.13;;;12.30;44.30;;;;;;6113831;23;20437;-89
2021/03/16 12:38:01;;;;;;;2.43;2.33;;;14.90;49.60;;;;;;6089649;23;20877;-88
2021/03/16 12:40:29;;;;;;;2.97;2.00;;;14.40;48.10;;;;;;6096698;23;20453;-88
2021/03/16 12:43:00;;;;;;;2.73;1.43;;;14.90;49.80;;;;;;6084597;23;20410;-88
2021/03/16 12:45:42;;;;;;;3.27;2.77;;;13.80;48.70;;;;;;6077165;23;20407;-87
2021/03/16 12:48:12;;;;;;;5.63;2.33;;;12.80;52.10;;;;;;6052054;23;20391;-91
2021/03/16 12:50:53;;;;;;;;;;;;;;;;;;;;;
2021/03/16 12:53:19;;;;;;;3.60;2.27;;;10.00;51.30;;;;;;6077313;23;20166;-87
2021/03/16 12:55:46;;;;;;;4.73;1.93;;;11.40;55.50;;;;;;6075882;23;20398;-90
2021/03/16 12:58:12;;;;;;;2.47;1.60;;;10.00;49.90;;;;;;6076346;23;20395;-90
2021/03/16 13:00:38;;;;;;;4.30;1.53;;;8.50;50.40;;;;;;6080270;23;20431;-89
2021/03/16 13:03:13;;;;;;;;;;;;;;;;;;;;;
2021/03/16 13:05:55;;;;;;;;;;;;;;;;;;;;;
2021/03/16 13:11:08;;;;;;;6.30;1.30;;;9.70;51.40;;;;;;6264553;22;20203;-87
2021/03/16 13:13:56;;;;;;;1.10;1.10;;;10.80;51.50;;;;;;6118171;22;20213;-88
2021/03/16 13:16:39;;;;;;;3.95;2.95;;;10.80;54.60;;;;;;6089140;23;20134;-88
2021/03/16 13:19:33;;;;;;;17.40;6.38;;;13.50;55.40;;;;;;6099080;23;20257;-87
2021/03/16 13:22:03;;;;;;;3.33;2.10;;;10.90;53.10;;;;;;6142547;23;20267;-87
2021/03/16 13:24:28;;;;;;;5.00;2.38;;;12.50;58.30;;;;;;6151875;23;20248;-89
2021/03/16 13:27:08;;;;;;;2.87;2.33;;;8.90;55.30;;;;;;6206471;23;20140;-89
2021/03/16 13:40:17;;;;;;;3.20;1.80;;;10.40;51.20;;;;;;6086327;23;20194;-89
2021/03/16 13:45:57;;;;;;;4.25;1.73;;;13.30;53.20;;;;;;6136344;23;20386;-86
2021/03/16 13:48:26;;;;;;;2.90;1.90;;;13.70;53.00;;;;;;6107759;23;20223;-87
2021/03/16 13:54:26;;;;;;;4.50;1.50;;;12.60;48.00;;;;;;6118145;22;20442;-89
2021/03/16 13:59:55;;;;;;;2.53;1.70;;;13.80;47.60;;;;;;6072852;23;20459;-85
2021/03/16 14:02:28;;;;;;;3.87;3.50;;;13.80;46.30;;;;;;6061632;23;20360;-87
2021/03/16 14:04:57;;;;;;;2.13;1.90;;;13.90;49.30;;;;;;6056391;23;20479;-88
2021/03/16 14:10:08;;;;;;;2.87;2.23;;;14.90;43.20;;;;;;6093615;22;20456;-85
2021/03/16 14:12:54;;;;;;;2.40;2.20;;;15.30;50.00;;;;;;6167020;22;20397;-86
2021/03/16 14:20:52;;;;;;;4.50;2.47;;;13.60;42.70;;;;;;6118063;22;20450;-86
2021/03/16 14:23:19;;;;;;;1.80;1.70;;;15.90;50.30;;;;;;6090314;23;20458;-88
2021/03/16 14:25:57;;;;;;;4.60;3.57;;;12.60;52.20;;;;;;6086292;23;20414;-91
2021/03/16 14:28:42;;;;;;;2.90;1.80;;;11.00;48.00;;;;;;6084599;23;20146;-89
2021/03/16 14:34:07;;;;;;;9.52;4.78;;;10.50;49.80;;;;;;6161923;22;20201;-90
2021/03/16 14:36:39;;;;;;;3.90;2.75;;;12.10;53.70;;;;;;6071753;23;20173;-86
2021/03/16 14:39:21;;;;;;;4.25;3.95;;;9.00;50.60;;;;;;6100641;22;20312;-89
2021/03/16 14:41:55;;;;;;;2.92;1.65;;;12.80;52.30;;;;;;6298921;22;20166;-87
2021/03/16 14:44:23;;;;;;;6.85;2.08;;;13.70;53.40;;;;;;6300339;22;20154;-85
2021/03/16 15:08:13;;;;;;;6.38;2.05;;;9.40;55.70;;;;;;6113418;23;20237;-88
2021/03/16 15:13:15;;;;;;;3.13;2.03;;;9.40;56.60;;;;;;6130242;23;20295;-86
2021/03/16 15:15:51;;;;;;;1.90;1.80;;;9.50;57.40;;;;;;6086158;23;20192;-88
2021/03/16 15:18:29;;;;;;;4.70;2.10;;;10.10;53.50;;;;;;6084982;23;20589;-87
2021/03/16 15:20:56;;;;;;;4.25;2.25;;;13.10;54.10;;;;;;6088508;23;20153;-90
2021/03/16 15:23:22;;;;;;;3.08;2.00;;;9.70;51.70;;;;;;6188076;23;20177;-86
2021/03/16 15:25:50;;;;;;;1.88;1.77;;;10.70;52.80;;;;;;6105370;23;20696;-87
2021/03/16 15:28:15;;;;;;;3.63;2.15;;;14.60;56.60;;;;;;6095230;23;20151;-86
2021/03/16 15:30:41;;;;;;;4.20;3.30;;;11.30;55.20;;;;;;6094599;23;20431;-86
2021/03/16 15:33:27;;;;;;;3.70;2.60;;;10.40;53.90;;;;;;6097597;23;20161;-89
2021/03/16 15:36:28;;;;;;;2.38;2.28;;;10.20;54.30;;;;;;6086810;23;20142;-87
2021/03/16 15:39:00;;;;;;;4.20;2.50;;;12.50;55.00;;;;;;6112451;23;20185;-90
2021/03/16 15:41:36;;;;;;;6.68;3.78;;;12.10;55.50;;;;;;6114064;23;20210;-88
2021/03/16 15:44:06;;;;;;;4.47;2.97;;;9.80;55.50;;;;;;6110969;23;20153;-86
2021/03/16 15:47:05;;;;;;;7.20;3.40;;;9.40;55.70;;;;;;6087964;23;20218;-88
2021/03/16 15:49:31;;;;;;;10.65;4.00;;;10.50;56.20;;;;;;6111321;23;20366;-85
2021/03/16 15:52:07;;;;;;;20.00;9.80;;;9.50;57.90;;;;;;6185963;23;20170;-88
2021/03/16 15:54:35;;;;;;;48.10;26.52;;;7.70;56.30;;;;;;6114905;23;20374;-87
2021/03/16 15:57:11;;;;;;;612.40;360.88;;;9.10;58.10;;;;;;6084428;23;20251;-89
2021/03/16 15:59:44;;;;;;;162.07;104.03;;;10.30;58.70;;;;;;6179383;23;20190;-89
2021/03/16 16:02:10;;;;;;;10.10;6.68;;;9.60;58.70;;;;;;6094342;23;20155;-89
2021/03/16 16:04:36;;;;;;;7.00;4.50;;;9.00;60.00;;;;;;6089724;23;20181;-90
2021/03/16 16:07:05;;;;;;;3.72;3.47;;;10.40;71.60;;;;;;6110721;23;20150;-89
2021/03/16 16:09:40;;;;;;;9.15;3.90;;;9.80;59.40;;;;;;6115836;23;20154;-87
2021/03/16 16:12:13;;;;;;;4.20;3.88;;;9.50;59.20;;;;;;6112878;23;20221;-89
2021/03/16 16:14:48;;;;;;;10.82;3.67;;;9.80;59.50;;;;;;6110372;23;20170;-88
2021/03/16 16:17:17;;;;;;;4.53;4.00;;;8.80;60.60;;;;;;6131991;23;20141;-87
2021/03/16 16:19:50;;;;;;;5.40;3.80;;;8.70;60.60;;;;;;6087054;23;20185;-89
2021/03/16 16:22:16;;;;;;;11.57;4.65;;;9.50;65.00;;;;;;6111873;23;20610;-87
2021/03/16 16:24:50;;;;;;;5.10;3.83;;;7.40;71.60;;;;;;6085797;23;20150;-87
2021/03/16 16:29:54;;;;;;;13.27;6.90;;;8.60;59.90;;;;;;6105512;23;20487;-89
2021/03/16 16:32:20;;;;;;;7.13;4.95;;;9.70;72.50;;;;;;6083329;23;20484;-86
2021/03/16 16:34:48;;;;;;;9.93;5.30;;;11.40;70.90;;;;;;6107783;23;20169;-89
2021/03/16 16:37:15;;;;;;;8.07;6.40;;;8.20;64.00;;;;;;6107647;23;20156;-86
2021/03/16 16:39:43;;;;;;;6.32;5.15;;;7.70;64.70;;;;;;6110669;23;20169;-87
2021/03/16 16:42:23;;;;;;;10.98;6.00;;;10.00;70.40;;;;;;6110457;23;20184;-88
2021/03/16 16:44:54;;;;;;;7.63;6.93;;;6.30;74.80;;;;;;6086174;23;20138;-88
2021/03/16 16:47:45;;;;;;;9.85;8.90;;;8.10;76.30;;;;;;6117044;23;20147;-88